sensor_id;sensor_type;location;lat;lon;timestamp;pressure;altitude;pressure_sealevel;temperature;humidity
55538;BME280;41383;51.418;7.286;2023-04-19T00:01:56;100894.66;;;11.36;71.56
55538;BME280;41383;51.418;7.286;2023-04-19T00:04:21;100898.84;;;11.55;71.19
55538;BME280;41383;51.418;7.286;2023-04-19T00:06:46;100888.44;;;11.52;71.12
55538;BME280;41383;51.418;7.286;2023-04-19T00:09:12;100879.44;;;11.40;71.66
55538;BME280;41383;51.418;7.286;2023-04-19T00:11:37;100888.72;;;11.39;72.21
55538;BME280;41383;51.418;7.286;2023-04-19T00:14:02;100895.94;;;11.45;71.85
55538;BME280;41383;51.418;7.286;2023-04-19T00:16:28;100883.88;;;11.29;72.70
55538;BME280;41383;51.418;7.286;2023-04-19T00:18:53;100877.09;;;11.31;72.95
55538;BME280;41383;51.418;7.286;2023-04-19T00:21:18;100884.56;;;11.36;72.91
55538;BME280;41383;51.418;7.286;2023-04-19T00:23:44;100892.50;;;11.38;73.00
55538;BME280;41383;51.418;7.286;2023-04-19T00:26:09;100884.91;;;11.40;73.25
55538;BME280;41383;51.418;7.286;2023-04-19T00:28:35;100884.94;;;11.28;73.92
55538;BME280;41383;51.418;7.286;2023-04-19T00:31:00;100887.06;;;11.38;73.50
55538;BME280;41383;51.418;7.286;2023-04-19T00:33:26;100885.44;;;11.25;74.36
55538;BME280;41383;51.418;7.286;2023-04-19T00:35:51;100879.13;;;11.36;73.75
55538;BME280;41383;51.418;7.286;2023-04-19T00:38:16;100882.97;;;11.52;73.21
55538;BME280;41383;51.418;7.286;2023-04-19T00:40:42;100888.44;;;11.52;73.29
55538;BME280;41383;51.418;7.286;2023-04-19T00:43:07;100880.81;;;11.54;73.82
55538;BME280;41383;51.418;7.286;2023-04-19T00:45:33;100873.78;;;11.29;74.85
55538;BME280;41383;51.418;7.286;2023-04-19T00:48:00;100876.41;;;11.24;75.19
55538;BME280;41383;51.418;7.286;2023-04-19T00:50:25;100871.81;;;11.25;75.01
55538;BME280;41383;51.418;7.286;2023-04-19T00:52:52;100883.06;;;11.28;74.83
55538;BME280;41383;51.418;7.286;2023-04-19T00:55:18;100874.81;;;11.40;74.62
55538;BME280;41383;51.418;7.286;2023-04-19T00:57:43;100871.16;;;11.35;74.77
55538;BME280;41383;51.418;7.286;2023-04-19T01:00:09;100874.50;;;11.37;74.47
55538;BME280;41383;51.418;7.286;2023-04-19T01:02:34;100870.09;;;11.36;74.85
55538;BME280;41383;51.418;7.286;2023-04-19T01:05:00;100863.56;;;11.37;74.55
55538;BME280;41383;51.418;7.286;2023-04-19T01:07:25;100862.59;;;11.43;74.54
55538;BME280;41383;51.418;7.286;2023-04-19T01:09:51;100868.78;;;11.38;74.48
55538;BME280;41383;51.418;7.286;2023-04-19T01:12:16;100869.38;;;11.40;74.05
55538;BME280;41383;51.418;7.286;2023-04-19T01:14:42;100865.97;;;11.21;74.88
55538;BME280;41383;51.418;7.286;2023-04-19T01:17:08;100867.72;;;11.27;74.91
55538;BME280;41383;51.418;7.286;2023-04-19T01:19:35;100864.97;;;11.39;74.99
55538;BME280;41383;51.418;7.286;2023-04-19T01:22:01;100857.31;;;11.53;73.86
55538;BME280;41383;51.418;7.286;2023-04-19T01:24:28;100859.44;;;11.51;74.16
55538;BME280;41383;51.418;7.286;2023-04-19T01:26:53;100845.91;;;11.56;73.89
55538;BME280;41383;51.418;7.286;2023-04-19T01:29:19;100854.56;;;11.53;73.65
55538;BME280;41383;51.418;7.286;2023-04-19T01:31:46;100848.94;;;11.43;74.32
55538;BME280;41383;51.418;7.286;2023-04-19T01:34:15;100854.69;;;11.59;73.73
55538;BME280;41383;51.418;7.286;2023-04-19T01:36:40;100856.50;;;11.70;73.21
55538;BME280;41383;51.418;7.286;2023-04-19T01:39:06;100853.72;;;11.65;73.27
55538;BME280;41383;51.418;7.286;2023-04-19T01:41:31;100856.13;;;11.49;73.89
55538;BME280;41383;51.418;7.286;2023-04-19T01:43:56;100856.13;;;11.49;74.01
55538;BME280;41383;51.418;7.286;2023-04-19T01:46:22;100850.34;;;11.46;74.12
55538;BME280;41383;51.418;7.286;2023-04-19T01:48:47;100850.59;;;11.44;74.28
55538;BME280;41383;51.418;7.286;2023-04-19T01:51:12;100852.34;;;11.50;73.73
55538;BME280;41383;51.418;7.286;2023-04-19T01:53:37;100850.78;;;11.54;74.13
55538;BME280;41383;51.418;7.286;2023-04-19T01:56:03;100852.34;;;11.50;74.05
55538;BME280;41383;51.418;7.286;2023-04-19T01:58:28;100861.59;;;11.49;74.50
55538;BME280;41383;51.418;7.286;2023-04-19T02:00:53;100850.38;;;11.63;73.83
55538;BME280;41383;51.418;7.286;2023-04-19T02:03:19;100853.97;;;11.51;74.26
55538;BME280;41383;51.418;7.286;2023-04-19T02:05:44;100853.44;;;11.37;74.59
55538;BME280;41383;51.418;7.286;2023-04-19T02:08:09;100843.50;;;11.31;74.81
55538;BME280;41383;51.418;7.286;2023-04-19T02:10:34;100838.41;;;11.35;74.69
55538;BME280;41383;51.418;7.286;2023-04-19T02:13:00;100841.72;;;11.37;75.00
55538;BME280;41383;51.418;7.286;2023-04-19T02:15:25;100848.50;;;11.34;74.55
55538;BME280;41383;51.418;7.286;2023-04-19T02:17:50;100846.81;;;11.33;74.23
55538;BME280;41383;51.418;7.286;2023-04-19T02:20:16;100843.28;;;11.32;74.57
55538;BME280;41383;51.418;7.286;2023-04-19T02:22:41;100841.09;;;11.47;73.43
55538;BME280;41383;51.418;7.286;2023-04-19T02:25:07;100840.63;;;11.38;73.69
55538;BME280;41383;51.418;7.286;2023-04-19T02:27:33;100849.69;;;11.55;72.86
55538;BME280;41383;51.418;7.286;2023-04-19T02:29:58;100838.28;;;11.59;72.21
55538;BME280;41383;51.418;7.286;2023-04-19T02:32:23;100837.78;;;11.62;72.33
55538;BME280;41383;51.418;7.286;2023-04-19T02:34:49;100837.97;;;11.55;72.08
55538;BME280;41383;51.418;7.286;2023-04-19T02:37:14;100833.16;;;11.45;72.02
55538;BME280;41383;51.418;7.286;2023-04-19T02:39:39;100830.41;;;11.45;71.22
55538;BME280;41383;51.418;7.286;2023-04-19T02:42:06;100834.78;;;11.46;71.11
55538;BME280;41383;51.418;7.286;2023-04-19T02:44:31;100834.00;;;11.33;70.49
55538;BME280;41383;51.418;7.286;2023-04-19T02:46:57;100839.63;;;11.27;70.64
55538;BME280;41383;51.418;7.286;2023-04-19T02:49:22;100851.09;;;11.29;70.32
55538;BME280;41383;51.418;7.286;2023-04-19T02:51:49;100843.66;;;11.24;70.62
55538;BME280;41383;51.418;7.286;2023-04-19T02:54:15;100842.00;;;11.23;69.76
55538;BME280;41383;51.418;7.286;2023-04-19T02:56:40;100840.56;;;11.32;69.76
55538;BME280;41383;51.418;7.286;2023-04-19T02:59:05;100847.44;;;11.23;70.06
55538;BME280;41383;51.418;7.286;2023-04-19T03:01:31;100842.69;;;11.30;70.06
55538;BME280;41383;51.418;7.286;2023-04-19T03:03:57;100836.06;;;11.26;69.35
55538;BME280;41383;51.418;7.286;2023-04-19T03:06:22;100846.41;;;11.24;69.82
55538;BME280;41383;51.418;7.286;2023-04-19T03:08:47;100829.56;;;11.15;68.90
55538;BME280;41383;51.418;7.286;2023-04-19T03:11:14;100838.47;;;11.11;68.40
55538;BME280;41383;51.418;7.286;2023-04-19T03:13:40;100843.22;;;11.15;68.60
55538;BME280;41383;51.418;7.286;2023-04-19T03:16:06;100846.53;;;11.17;68.55
55538;BME280;41383;51.418;7.286;2023-04-19T03:18:31;100837.66;;;11.10;68.88
55538;BME280;41383;51.418;7.286;2023-04-19T03:20:56;100834.00;;;11.33;68.63
55538;BME280;41383;51.418;7.286;2023-04-19T03:23:22;100837.91;;;11.38;68.40
55538;BME280;41383;51.418;7.286;2023-04-19T03:25:47;100827.69;;;11.45;67.54
55538;BME280;41383;51.418;7.286;2023-04-19T03:28:13;100829.13;;;11.36;67.34
55538;BME280;41383;51.418;7.286;2023-04-19T03:30:38;100827.41;;;11.17;67.74
55538;BME280;41383;51.418;7.286;2023-04-19T03:33:03;100826.84;;;11.15;67.76
55538;BME280;41383;51.418;7.286;2023-04-19T03:35:28;100832.25;;;11.27;67.12
55538;BME280;41383;51.418;7.286;2023-04-19T03:37:56;100830.31;;;11.40;66.72
55538;BME280;41383;51.418;7.286;2023-04-19T03:40:21;100822.50;;;11.31;66.71
55538;BME280;41383;51.418;7.286;2023-04-19T03:42:46;100826.50;;;11.41;66.56
55538;BME280;41383;51.418;7.286;2023-04-19T03:45:12;100826.13;;;11.20;66.84
55538;BME280;41383;51.418;7.286;2023-04-19T03:47:37;100827.75;;;11.21;67.06
55538;BME280;41383;51.418;7.286;2023-04-19T03:50:02;100823.34;;;11.32;66.21
55538;BME280;41383;51.418;7.286;2023-04-19T03:52:28;100823.63;;;11.18;66.25
55538;BME280;41383;51.418;7.286;2023-04-19T03:54:53;100820.81;;;11.01;66.90
55538;BME280;41383;51.418;7.286;2023-04-19T03:57:18;100820.81;;;11.01;66.75
55538;BME280;41383;51.418;7.286;2023-04-19T03:59:44;100824.44;;;10.90;67.12
55538;BME280;41383;51.418;7.286;2023-04-19T04:02:09;100821.31;;;10.98;66.95
55538;BME280;41383;51.418;7.286;2023-04-19T04:04:34;100824.34;;;11.14;66.37
55538;BME280;41383;51.418;7.286;2023-04-19T04:06:59;100825.16;;;11.26;66.16
55538;BME280;41383;51.418;7.286;2023-04-19T04:09:25;100834.56;;;11.18;65.70
55538;BME280;41383;51.418;7.286;2023-04-19T04:11:50;100825.91;;;11.09;65.29
55538;BME280;41383;51.418;7.286;2023-04-19T04:14:15;100827.09;;;11.14;64.92
55538;BME280;41383;51.418;7.286;2023-04-19T04:16:41;100828.25;;;11.18;64.68
55538;BME280;41383;51.418;7.286;2023-04-19T04:19:06;100825.22;;;11.02;64.45
55538;BME280;41383;51.418;7.286;2023-04-19T04:21:31;100829.00;;;11.01;63.48
55538;BME280;41383;51.418;7.286;2023-04-19T04:23:57;100830.69;;;11.02;63.69
55538;BME280;41383;51.418;7.286;2023-04-19T04:26:22;100840.41;;;10.98;63.82
55538;BME280;41383;51.418;7.286;2023-04-19T04:28:49;100837.78;;;11.03;62.63
55538;BME280;41383;51.418;7.286;2023-04-19T04:31:14;100844.31;;;11.02;61.84
55538;BME280;41383;51.418;7.286;2023-04-19T04:33:42;100838.53;;;10.86;62.47
55538;BME280;41383;51.418;7.286;2023-04-19T04:36:07;100836.88;;;10.85;62.30
55538;BME280;41383;51.418;7.286;2023-04-19T04:38:36;100840.88;;;10.95;61.70
55538;BME280;41383;51.418;7.286;2023-04-19T04:41:01;100837.59;;;10.81;61.44
55538;BME280;41383;51.418;7.286;2023-04-19T04:43:27;100834.88;;;10.69;61.09
55538;BME280;41383;51.418;7.286;2023-04-19T04:45:54;100838.69;;;10.68;61.50
55538;BME280;41383;51.418;7.286;2023-04-19T04:48:21;100831.31;;;10.68;61.39
55538;BME280;41383;51.418;7.286;2023-04-19T04:50:46;100836.56;;;10.70;61.47
55538;BME280;41383;51.418;7.286;2023-04-19T04:53:11;100840.94;;;10.71;61.19
55538;BME280;41383;51.418;7.286;2023-04-19T04:55:37;100838.47;;;10.69;60.99
55538;BME280;41383;51.418;7.286;2023-04-19T04:58:02;100842.25;;;10.68;60.74
55538;BME280;41383;51.418;7.286;2023-04-19T05:00:30;100835.75;;;10.57;60.94
55538;BME280;41383;51.418;7.286;2023-04-19T05:02:55;100835.97;;;10.68;60.56
55538;BME280;41383;51.418;7.286;2023-04-19T05:05:21;100840.69;;;10.48;61.07
55538;BME280;41383;51.418;7.286;2023-04-19T05:07:46;100838.81;;;10.49;60.97
55538;BME280;41383;51.418;7.286;2023-04-19T05:10:12;100831.25;;;10.51;60.66
55538;BME280;41383;51.418;7.286;2023-04-19T05:12:37;100835.22;;;10.48;61.17
55538;BME280;41383;51.418;7.286;2023-04-19T05:15:02;100837.13;;;10.48;60.86
55538;BME280;41383;51.418;7.286;2023-04-19T05:17:28;100839.06;;;10.59;60.29
55538;BME280;41383;51.418;7.286;2023-04-19T05:19:53;100833.13;;;10.62;60.54
55538;BME280;41383;51.418;7.286;2023-04-19T05:22:18;100840.19;;;10.39;61.06
55538;BME280;41383;51.418;7.286;2023-04-19T05:24:43;100833.00;;;10.45;60.94
55538;BME280;41383;51.418;7.286;2023-04-19T05:27:09;100826.47;;;10.58;60.42
55538;BME280;41383;51.418;7.286;2023-04-19T05:29:35;100831.81;;;10.65;59.99
55538;BME280;41383;51.418;7.286;2023-04-19T05:32:00;100832.06;;;10.64;59.83
55538;BME280;41383;51.418;7.286;2023-04-19T05:34:25;100833.97;;;10.63;59.91
55538;BME280;41383;51.418;7.286;2023-04-19T05:36:51;100835.75;;;10.57;59.63
55538;BME280;41383;51.418;7.286;2023-04-19T05:39:16;100827.56;;;10.57;59.62
55538;BME280;41383;51.418;7.286;2023-04-19T05:41:42;100836.69;;;10.63;59.24
55538;BME280;41383;51.418;7.286;2023-04-19T05:44:07;100835.03;;;10.50;58.71
55538;BME280;41383;51.418;7.286;2023-04-19T05:46:32;100826.34;;;10.41;59.52
55538;BME280;41383;51.418;7.286;2023-04-19T05:48:58;100837.13;;;10.48;58.39
55538;BME280;41383;51.418;7.286;2023-04-19T05:51:23;100838.66;;;10.44;57.83
55538;BME280;41383;51.418;7.286;2023-04-19T05:53:48;100828.50;;;10.39;57.94
55538;BME280;41383;51.418;7.286;2023-04-19T05:56:13;100825.38;;;10.35;57.50
55538;BME280;41383;51.418;7.286;2023-04-19T05:58:39;100836.44;;;10.53;57.55
55538;BME280;41383;51.418;7.286;2023-04-19T06:01:04;100834.63;;;10.46;57.26
55538;BME280;41383;51.418;7.286;2023-04-19T06:03:31;100839.41;;;10.63;57.02
55538;BME280;41383;51.418;7.286;2023-04-19T06:05:57;100837.97;;;10.72;56.81
55538;BME280;41383;51.418;7.286;2023-04-19T06:08:22;100830.72;;;10.78;57.04
55538;BME280;41383;51.418;7.286;2023-04-19T06:10:48;100826.09;;;10.79;57.28
55538;BME280;41383;51.418;7.286;2023-04-19T06:13:14;100828.56;;;10.80;56.61
55538;BME280;41383;51.418;7.286;2023-04-19T06:15:40;100835.25;;;10.60;56.43
55538;BME280;41383;51.418;7.286;2023-04-19T06:18:05;100831.91;;;10.46;56.96
55538;BME280;41383;51.418;7.286;2023-04-19T06:20:35;100836.44;;;10.65;56.84
55538;BME280;41383;51.418;7.286;2023-04-19T06:23:00;100834.78;;;10.64;56.66
55538;BME280;41383;51.418;7.286;2023-04-19T06:25:26;100836.22;;;10.54;56.72
55538;BME280;41383;51.418;7.286;2023-04-19T06:27:51;100826.22;;;10.48;57.09
55538;BME280;41383;51.418;7.286;2023-04-19T06:30:16;100824.34;;;10.60;56.43
55538;BME280;41383;51.418;7.286;2023-04-19T06:32:41;100825.66;;;10.58;55.81
55538;BME280;41383;51.418;7.286;2023-04-19T06:35:07;100832.88;;;10.52;55.27
55538;BME280;41383;51.418;7.286;2023-04-19T06:37:32;100829.56;;;10.50;55.61
55538;BME280;41383;51.418;7.286;2023-04-19T06:39:58;100827.66;;;10.62;54.41
55538;BME280;41383;51.418;7.286;2023-04-19T06:42:24;100827.06;;;10.48;54.02
55538;BME280;41383;51.418;7.286;2023-04-19T06:44:50;100827.31;;;10.35;54.14
55538;BME280;41383;51.418;7.286;2023-04-19T06:47:15;100832.06;;;10.51;54.15
55538;BME280;41383;51.418;7.286;2023-04-19T06:49:41;100835.13;;;10.43;51.71
55538;BME280;41383;51.418;7.286;2023-04-19T06:52:06;100835.94;;;10.44;52.69
55538;BME280;41383;51.418;7.286;2023-04-19T06:54:31;100831.59;;;10.55;52.77
55538;BME280;41383;51.418;7.286;2023-04-19T06:56:57;100835.84;;;10.26;52.61
55538;BME280;41383;51.418;7.286;2023-04-19T06:59:22;100825.53;;;10.41;52.43
55538;BME280;41383;51.418;7.286;2023-04-19T07:01:49;100833.34;;;10.37;52.13
55538;BME280;41383;51.418;7.286;2023-04-19T07:04:14;100832.63;;;10.18;51.60
55538;BME280;41383;51.418;7.286;2023-04-19T07:06:40;100828.47;;;10.15;52.15
55538;BME280;41383;51.418;7.286;2023-04-19T07:09:06;100820.91;;;10.29;52.19
55538;BME280;41383;51.418;7.286;2023-04-19T07:11:32;100828.84;;;10.31;51.32
55538;BME280;41383;51.418;7.286;2023-04-19T07:13:58;100821.13;;;10.39;51.33
55538;BME280;41383;51.418;7.286;2023-04-19T07:16:25;100826.47;;;10.58;51.32
55538;BME280;41383;51.418;7.286;2023-04-19T07:18:51;100823.41;;;10.55;51.72
55538;BME280;41383;51.418;7.286;2023-04-19T07:21:16;100829.78;;;10.48;51.38
55538;BME280;41383;51.418;7.286;2023-04-19T07:23:41;100820.94;;;10.53;51.39
55538;BME280;41383;51.418;7.286;2023-04-19T07:26:07;100829.34;;;10.64;50.11
55538;BME280;41383;51.418;7.286;2023-04-19T07:28:32;100821.53;;;10.55;50.24
55538;BME280;41383;51.418;7.286;2023-04-19T07:30:58;100823.38;;;10.43;49.73
55538;BME280;41383;51.418;7.286;2023-04-19T07:33:25;100815.06;;;10.37;50.09
55538;BME280;41383;51.418;7.286;2023-04-19T07:35:50;100812.50;;;10.55;49.54
55538;BME280;41383;51.418;7.286;2023-04-19T07:38:16;100824.00;;;10.57;49.82
55538;BME280;41383;51.418;7.286;2023-04-19T07:40:41;100811.19;;;10.69;48.81
55538;BME280;41383;51.418;7.286;2023-04-19T07:43:07;100822.56;;;10.66;48.73
55538;BME280;41383;51.418;7.286;2023-04-19T07:45:32;100819.13;;;10.47;49.77
55538;BME280;41383;51.418;7.286;2023-04-19T07:47:57;100818.06;;;10.60;49.47
55538;BME280;41383;51.418;7.286;2023-04-19T07:50:24;100815.09;;;10.73;48.77
55538;BME280;41383;51.418;7.286;2023-04-19T07:52:49;100821.34;;;10.74;49.51
55538;BME280;41383;51.418;7.286;2023-04-19T07:55:14;100813.75;;;10.76;48.80
55538;BME280;41383;51.418;7.286;2023-04-19T07:57:40;100818.53;;;10.69;47.84
55538;BME280;41383;51.418;7.286;2023-04-19T08:00:10;100816.66;;;10.57;47.45
55538;BME280;41383;51.418;7.286;2023-04-19T08:02:37;100819.13;;;10.71;48.48
55538;BME280;41383;51.418;7.286;2023-04-19T08:05:02;100822.44;;;10.73;47.24
55538;BME280;41383;51.418;7.286;2023-04-19T08:07:28;100824.56;;;10.71;47.85
55538;BME280;41383;51.418;7.286;2023-04-19T08:09:53;100814.09;;;10.92;48.24
55538;BME280;41383;51.418;7.286;2023-04-19T08:12:18;100811.97;;;10.94;47.53
55538;BME280;41383;51.418;7.286;2023-04-19T08:14:43;100817.03;;;10.90;47.12
55538;BME280;41383;51.418;7.286;2023-04-19T08:17:09;100822.38;;;10.97;48.06
55538;BME280;41383;51.418;7.286;2023-04-19T08:19:34;100826.19;;;10.96;47.07
55538;BME280;41383;51.418;7.286;2023-04-19T08:21:59;100824.22;;;10.79;47.24
55538;BME280;41383;51.418;7.286;2023-04-19T08:24:25;100826.56;;;10.88;46.66
55538;BME280;41383;51.418;7.286;2023-04-19T08:26:50;100832.47;;;10.84;47.31
55538;BME280;41383;51.418;7.286;2023-04-19T08:29:19;100827.41;;;10.88;46.57
55538;BME280;41383;51.418;7.286;2023-04-19T08:31:46;100826.31;;;10.89;46.64
55538;BME280;41383;51.418;7.286;2023-04-19T08:34:11;100823.34;;;10.91;47.59
55538;BME280;41383;51.418;7.286;2023-04-19T08:36:36;100828.44;;;10.99;46.71
55538;BME280;41383;51.418;7.286;2023-04-19T08:39:01;100822.03;;;10.93;46.65
55538;BME280;41383;51.418;7.286;2023-04-19T08:41:29;100826.81;;;10.86;46.66
55538;BME280;41383;51.418;7.286;2023-04-19T08:43:54;100825.69;;;10.99;47.29
55538;BME280;41383;51.418;7.286;2023-04-19T08:46:22;100826.66;;;10.93;47.42
55538;BME280;41383;51.418;7.286;2023-04-19T08:48:49;100836.16;;;11.02;46.20
55538;BME280;41383;51.418;7.286;2023-04-19T08:51:16;100831.63;;;11.08;47.04
55538;BME280;41383;51.418;7.286;2023-04-19T08:53:42;100827.28;;;11.24;46.47
55538;BME280;41383;51.418;7.286;2023-04-19T08:56:08;100823.78;;;11.41;47.16
55538;BME280;41383;51.418;7.286;2023-04-19T08:58:34;100822.56;;;11.49;46.86
55538;BME280;41383;51.418;7.286;2023-04-19T09:01:03;100834.78;;;11.46;47.02
55538;BME280;41383;51.418;7.286;2023-04-19T09:03:28;100824.13;;;11.44;46.87
55538;BME280;41383;51.418;7.286;2023-04-19T09:05:53;100820.41;;;11.51;46.08
55538;BME280;41383;51.418;7.286;2023-04-19T09:08:21;100818.94;;;11.60;46.76
55538;BME280;41383;51.418;7.286;2023-04-19T09:10:58;100815.78;;;11.68;45.85
55538;BME280;41383;51.418;7.286;2023-04-19T09:13:25;100810.41;;;11.56;45.60
55538;BME280;41383;51.418;7.286;2023-04-19T09:15:51;100819.94;;;11.71;45.20
55538;BME280;41383;51.418;7.286;2023-04-19T09:18:17;100809.19;;;11.82;44.33
55538;BME280;41383;51.418;7.286;2023-04-19T09:20:43;100812.00;;;11.87;45.32
55538;BME280;41383;51.418;7.286;2023-04-19T09:23:11;100806.59;;;11.92;45.00
55538;BME280;41383;51.418;7.286;2023-04-19T09:25:49;100811.00;;;12.10;43.94
55538;BME280;41383;51.418;7.286;2023-04-19T09:28:15;100800.50;;;12.19;44.19
55538;BME280;41383;51.418;7.286;2023-04-19T09:30:40;100803.41;;;11.95;41.85
55538;BME280;41383;51.418;7.286;2023-04-19T09:33:06;100812.66;;;11.94;41.74
55538;BME280;41383;51.418;7.286;2023-04-19T09:35:43;100800.06;;;12.10;41.50
55538;BME280;41383;51.418;7.286;2023-04-19T09:38:09;100802.22;;;12.08;42.15
55538;BME280;41383;51.418;7.286;2023-04-19T09:40:35;100795.94;;;12.25;41.40
55538;BME280;41383;51.418;7.286;2023-04-19T09:43:02;100791.47;;;12.36;41.34
55538;BME280;41383;51.418;7.286;2023-04-19T09:45:38;100784.59;;;12.56;40.96
55538;BME280;41383;51.418;7.286;2023-04-19T09:48:05;100778.66;;;12.59;40.93
55538;BME280;41383;51.418;7.286;2023-04-19T09:50:34;100785.63;;;12.72;41.03
55538;BME280;41383;51.418;7.286;2023-04-19T09:53:01;100781.31;;;12.76;41.31
55538;BME280;41383;51.418;7.286;2023-04-19T09:55:26;100774.56;;;12.84;40.79
55538;BME280;41383;51.418;7.286;2023-04-19T09:57:52;100780.59;;;12.64;39.00
55538;BME280;41383;51.418;7.286;2023-04-19T10:00:18;100767.34;;;12.55;39.96
55538;BME280;41383;51.418;7.286;2023-04-19T10:02:46;100771.63;;;12.46;39.53
55538;BME280;41383;51.418;7.286;2023-04-19T10:05:19;100775.81;;;12.54;40.65
55538;BME280;41383;51.418;7.286;2023-04-19T10:07:45;100772.91;;;12.83;40.38
55538;BME280;41383;51.418;7.286;2023-04-19T10:10:10;100769.59;;;12.81;39.66
55538;BME280;41383;51.418;7.286;2023-04-19T10:12:36;100766.16;;;12.91;39.09
55538;BME280;41383;51.418;7.286;2023-04-19T10:15:01;100769.00;;;13.01;39.35
55538;BME280;41383;51.418;7.286;2023-04-19T10:17:28;100768.16;;;13.23;39.46
55538;BME280;41383;51.418;7.286;2023-04-19T10:20:03;100768.59;;;13.42;38.97
55538;BME280;41383;51.418;7.286;2023-04-19T10:22:34;100760.94;;;13.72;39.30
55538;BME280;41383;51.418;7.286;2023-04-19T10:25:15;100770.34;;;13.26;36.27
55538;BME280;41383;51.418;7.286;2023-04-19T10:27:42;100756.81;;;13.42;38.91
55538;BME280;41383;51.418;7.286;2023-04-19T10:30:18;100755.31;;;13.57;38.33
55538;BME280;41383;51.418;7.286;2023-04-19T10:32:46;100744.41;;;13.62;38.45
55538;BME280;41383;51.418;7.286;2023-04-19T10:35:18;100756.88;;;13.75;37.74
55538;BME280;41383;51.418;7.286;2023-04-19T10:38:19;100754.19;;;13.85;36.74
55538;BME280;41383;51.418;7.286;2023-04-19T10:43:17;100753.81;;;14.09;37.32
55538;BME280;41383;51.418;7.286;2023-04-19T10:45:43;100743.53;;;13.89;35.98
55538;BME280;41383;51.418;7.286;2023-04-19T10:54:00;100733.66;;;14.31;37.13
55538;BME280;41383;51.418;7.286;2023-04-19T11:01:45;100733.25;;;14.66;37.54
55538;BME280;41383;51.418;7.286;2023-04-19T11:04:22;100712.31;;;14.44;36.73
55538;BME280;41383;51.418;7.286;2023-04-19T11:09:22;100710.69;;;14.48;36.03
55538;BME280;41383;51.418;7.286;2023-04-19T11:11:52;100719.47;;;14.61;35.75
55538;BME280;41383;51.418;7.286;2023-04-19T11:14:19;100715.97;;;14.70;35.46
55538;BME280;41383;51.418;7.286;2023-04-19T11:16:45;100708.81;;;14.75;34.97
55538;BME280;41383;51.418;7.286;2023-04-19T11:19:14;100706.41;;;14.84;35.35
55538;BME280;41383;51.418;7.286;2023-04-19T11:21:40;100703.69;;;14.84;35.03
55538;BME280;41383;51.418;7.286;2023-04-19T11:24:07;100696.03;;;14.96;34.96
55538;BME280;41383;51.418;7.286;2023-04-19T11:26:32;100706.13;;;14.80;34.80
55538;BME280;41383;51.418;7.286;2023-04-19T11:28:57;100699.50;;;14.76;34.74
55538;BME280;41383;51.418;7.286;2023-04-19T11:31:24;100694.91;;;14.87;34.49
55538;BME280;41383;51.418;7.286;2023-04-19T11:33:50;100692.22;;;15.13;33.87
55538;BME280;41383;51.418;7.286;2023-04-19T11:36:15;100689.72;;;15.22;33.56
55538;BME280;41383;51.418;7.286;2023-04-19T11:38:40;100679.56;;;15.22;33.29
55538;BME280;41383;51.418;7.286;2023-04-19T11:41:06;100673.81;;;15.29;34.70
55538;BME280;41383;51.418;7.286;2023-04-19T11:43:35;100671.34;;;15.27;32.76
55538;BME280;41383;51.418;7.286;2023-04-19T11:46:05;100665.53;;;15.50;34.34
55538;BME280;41383;51.418;7.286;2023-04-19T11:48:31;100655.34;;;15.76;33.85
55538;BME280;41383;51.418;7.286;2023-04-19T11:50:57;100654.25;;;15.72;33.85
55538;BME280;41383;51.418;7.286;2023-04-19T11:53:24;100653.22;;;15.37;32.85
55538;BME280;41383;51.418;7.286;2023-04-19T11:56:05;100657.31;;;15.50;32.67
55538;BME280;41383;51.418;7.286;2023-04-19T11:58:41;100647.44;;;15.33;32.57
55538;BME280;41383;51.418;7.286;2023-04-19T12:01:14;100637.81;;;15.62;33.29
55538;BME280;41383;51.418;7.286;2023-04-19T12:03:43;100636.63;;;15.79;33.36
55538;BME280;41383;51.418;7.286;2023-04-19T12:06:11;100622.63;;;15.80;32.82
55538;BME280;41383;51.418;7.286;2023-04-19T12:08:38;100619.06;;;15.74;32.08
55538;BME280;41383;51.418;7.286;2023-04-19T12:11:06;100619.63;;;15.71;33.20
55538;BME280;41383;51.418;7.286;2023-04-19T12:13:32;100620.19;;;15.73;32.72
55538;BME280;41383;51.418;7.286;2023-04-19T12:15:58;100614.59;;;15.99;32.82
55538;BME280;41383;51.418;7.286;2023-04-19T12:18:24;100617.03;;;16.17;31.87
55538;BME280;41383;51.418;7.286;2023-04-19T12:20:50;100599.66;;;16.21;32.70
55538;BME280;41383;51.418;7.286;2023-04-19T12:23:17;100617.78;;;16.28;32.62
55538;BME280;41383;51.418;7.286;2023-04-19T12:25:44;100598.28;;;16.24;32.72
55538;BME280;41383;51.418;7.286;2023-04-19T12:28:10;100600.69;;;16.36;32.70
55538;BME280;41383;51.418;7.286;2023-04-19T12:30:36;100607.75;;;16.53;33.04
55538;BME280;41383;51.418;7.286;2023-04-19T12:33:01;100600.84;;;16.61;32.54
55538;BME280;41383;51.418;7.286;2023-04-19T12:35:27;100598.50;;;16.38;32.79
55538;BME280;41383;51.418;7.286;2023-04-19T12:37:53;100599.50;;;16.53;32.41
55538;BME280;41383;51.418;7.286;2023-04-19T12:40:19;100590.72;;;16.51;32.00
55538;BME280;41383;51.418;7.286;2023-04-19T12:42:44;100598.97;;;16.45;31.36
55538;BME280;41383;51.418;7.286;2023-04-19T12:45:11;100593.22;;;16.42;31.38
55538;BME280;41383;51.418;7.286;2023-04-19T12:47:36;100600.69;;;16.36;31.57
55538;BME280;41383;51.418;7.286;2023-04-19T12:50:02;100591.00;;;16.49;31.27
55538;BME280;41383;51.418;7.286;2023-04-19T12:52:27;100590.00;;;16.75;31.11
55538;BME280;41383;51.418;7.286;2023-04-19T12:54:52;100584.00;;;17.02;31.61
55538;BME280;41383;51.418;7.286;2023-04-19T12:57:18;100588.78;;;16.91;31.21
55538;BME280;41383;51.418;7.286;2023-04-19T12:59:43;100578.06;;;16.90;31.23
55538;BME280;41383;51.418;7.286;2023-04-19T13:02:08;100582.75;;;16.84;31.62